sensor_id;sensor_type;location;lat;lon;timestamp;temperature;humidity
23721;DHT22;42950;52.134;5.578;2023-11-19T00:02:11;13.90;99.90
23721;DHT22;42950;52.134;5.578;2023-11-19T00:04:38;13.90;99.90
23721;DHT22;42950;52.134;5.578;2023-11-19T00:07:06;13.90;99.90
23721;DHT22;42950;52.134;5.578;2023-11-19T00:09:36;13.90;99.90
23721;DHT22;42950;52.134;5.578;2023-11-19T00:12:03;13.90;99.90
23721;DHT22;42950;52.134;5.578;2023-11-19T00:14:30;13.90;99.90
23721;DHT22;42950;52.134;5.578;2023-11-19T00:16:55;13.90;99.90
23721;DHT22;42950;52.134;5.578;2023-11-19T00:19:21;13.90;99.90
23721;DHT22;42950;52.134;5.578;2023-11-19T00:21:47;13.80;99.90
23721;DHT22;42950;52.134;5.578;2023-11-19T00:24:12;13.90;99.90
23721;DHT22;42950;52.134;5.578;2023-11-19T00:26:38;13.80;99.90
23721;DHT22;42950;52.134;5.578;2023-11-19T00:29:04;13.80;99.90
23721;DHT22;42950;52.134;5.578;2023-11-19T00:31:29;13.80;99.90
23721;DHT22;42950;52.134;5.578;2023-11-19T00:33:55;13.80;99.90
23721;DHT22;42950;52.134;5.578;2023-11-19T00:36:20;13.80;99.90
23721;DHT22;42950;52.134;5.578;2023-11-19T00:38:46;13.80;99.90
23721;DHT22;42950;52.134;5.578;2023-11-19T00:41:12;13.80;99.90
23721;DHT22;42950;52.134;5.578;2023-11-19T00:43:37;13.80;99.90
23721;DHT22;42950;52.134;5.578;2023-11-19T00:46:06;13.80;99.90
23721;DHT22;42950;52.134;5.578;2023-11-19T00:48:32;13.80;99.90
23721;DHT22;42950;52.134;5.578;2023-11-19T00:50:57;13.70;99.90
23721;DHT22;42950;52.134;5.578;2023-11-19T00:53:23;13.70;99.90
23721;DHT22;42950;52.134;5.578;2023-11-19T00:55:48;13.80;99.90
23721;DHT22;42950;52.134;5.578;2023-11-19T00:58:14;13.80;99.90
23721;DHT22;42950;52.134;5.578;2023-11-19T01:00:39;13.80;99.90
23721;DHT22;42950;52.134;5.578;2023-11-19T01:03:05;13.70;99.90
23721;DHT22;42950;52.134;5.578;2023-11-19T01:05:32;13.80;99.90
23721;DHT22;42950;52.134;5.578;2023-11-19T01:07:58;13.80;99.90
23721;DHT22;42950;52.134;5.578;2023-11-19T01:10:24;13.70;99.90
23721;DHT22;42950;52.134;5.578;2023-11-19T01:12:51;13.70;99.90
23721;DHT22;42950;52.134;5.578;2023-11-19T01:15:17;13.80;99.90
23721;DHT22;42950;52.134;5.578;2023-11-19T01:17:44;13.70;99.90
23721;DHT22;42950;52.134;5.578;2023-11-19T01:20:11;13.70;99.90
23721;DHT22;42950;52.134;5.578;2023-11-19T01:22:38;13.70;99.90
23721;DHT22;42950;52.134;5.578;2023-11-19T01:25:04;13.70;99.90
23721;DHT22;42950;52.134;5.578;2023-11-19T01:27:30;13.80;99.90
23721;DHT22;42950;52.134;5.578;2023-11-19T01:29:56;13.80;99.90
23721;DHT22;42950;52.134;5.578;2023-11-19T01:32:22;13.80;99.90
23721;DHT22;42950;52.134;5.578;2023-11-19T01:34:49;13.70;99.90
23721;DHT22;42950;52.134;5.578;2023-11-19T01:37:14;13.80;99.90
23721;DHT22;42950;52.134;5.578;2023-11-19T01:39:43;13.80;99.90
23721;DHT22;42950;52.134;5.578;2023-11-19T01:42:08;13.80;99.90
23721;DHT22;42950;52.134;5.578;2023-11-19T01:44:34;13.80;99.90
23721;DHT22;42950;52.134;5.578;2023-11-19T01:46:59;13.80;99.90
23721;DHT22;42950;52.134;5.578;2023-11-19T01:49:26;13.70;99.90
23721;DHT22;42950;52.134;5.578;2023-11-19T01:51:51;13.80;99.90
23721;DHT22;42950;52.134;5.578;2023-11-19T01:54:17;13.80;99.90
23721;DHT22;42950;52.134;5.578;2023-11-19T01:56:43;13.70;99.90
23721;DHT22;42950;52.134;5.578;2023-11-19T01:59:10;13.70;99.90
23721;DHT22;42950;52.134;5.578;2023-11-19T02:01:36;13.70;99.90
23721;DHT22;42950;52.134;5.578;2023-11-19T02:04:06;13.70;99.90
23721;DHT22;42950;52.134;5.578;2023-11-19T02:06:33;13.80;99.90
23721;DHT22;42950;52.134;5.578;2023-11-19T02:09:00;13.70;99.90
23721;DHT22;42950;52.134;5.578;2023-11-19T02:11:26;13.70;99.90
23721;DHT22;42950;52.134;5.578;2023-11-19T02:13:55;13.70;99.90
23721;DHT22;42950;52.134;5.578;2023-11-19T02:16:21;13.70;99.90
23721;DHT22;42950;52.134;5.578;2023-11-19T02:18:47;13.60;99.90
23721;DHT22;42950;52.134;5.578;2023-11-19T02:21:13;13.60;99.90
23721;DHT22;42950;52.134;5.578;2023-11-19T02:23:40;13.60;99.90
23721;DHT22;42950;52.134;5.578;2023-11-19T02:26:36;13.60;99.90
23721;DHT22;42950;52.134;5.578;2023-11-19T02:29:04;13.60;99.90
23721;DHT22;42950;52.134;5.578;2023-11-19T02:31:29;13.50;99.90
23721;DHT22;42950;52.134;5.578;2023-11-19T02:33:55;13.40;99.90
23721;DHT22;42950;52.134;5.578;2023-11-19T02:36:20;13.40;99.90
23721;DHT22;42950;52.134;5.578;2023-11-19T02:38:47;13.40;99.90
23721;DHT22;42950;52.134;5.578;2023-11-19T02:41:14;13.40;99.90
23721;DHT22;42950;52.134;5.578;2023-11-19T02:43:39;13.40;99.90
23721;DHT22;42950;52.134;5.578;2023-11-19T02:46:05;13.40;99.90
23721;DHT22;42950;52.134;5.578;2023-11-19T02:48:37;13.30;99.90
23721;DHT22;42950;52.134;5.578;2023-11-19T02:51:03;13.30;99.90
23721;DHT22;42950;52.134;5.578;2023-11-19T02:53:30;13.30;99.90
23721;DHT22;42950;52.134;5.578;2023-11-19T02:55:56;13.20;99.90
23721;DHT22;42950;52.134;5.578;2023-11-19T02:58:27;13.20;99.90
23721;DHT22;42950;52.134;5.578;2023-11-19T03:00:54;13.20;99.90
23721;DHT22;42950;52.134;5.578;2023-11-19T03:03:24;13.10;99.90
23721;DHT22;42950;52.134;5.578;2023-11-19T03:05:54;13.10;99.90
23721;DHT22;42950;52.134;5.578;2023-11-19T03:08:20;12.10;99.90
23721;DHT22;42950;52.134;5.578;2023-11-19T03:10:46;13.10;99.90
23721;DHT22;42950;52.134;5.578;2023-11-19T03:13:13;13.00;99.90
23721;DHT22;42950;52.134;5.578;2023-11-19T03:15:40;13.00;99.90
23721;DHT22;42950;52.134;5.578;2023-11-19T03:18:05;13.00;99.90
23721;DHT22;42950;52.134;5.578;2023-11-19T03:20:31;12.90;99.90
23721;DHT22;42950;52.134;5.578;2023-11-19T03:22:57;12.90;99.90
23721;DHT22;42950;52.134;5.578;2023-11-19T03:25:27;12.80;99.90
23721;DHT22;42950;52.134;5.578;2023-11-19T03:27:59;12.80;99.90
23721;DHT22;42950;52.134;5.578;2023-11-19T03:30:24;12.80;99.90
23721;DHT22;42950;52.134;5.578;2023-11-19T03:32:50;12.70;99.90
23721;DHT22;42950;52.134;5.578;2023-11-19T03:35:16;12.70;99.90
23721;DHT22;42950;52.134;5.578;2023-11-19T03:37:41;12.70;99.90
23721;DHT22;42950;52.134;5.578;2023-11-19T03:40:08;12.60;99.90
23721;DHT22;42950;52.134;5.578;2023-11-19T03:42:33;12.60;99.90
23721;DHT22;42950;52.134;5.578;2023-11-19T03:44:59;12.60;99.90
23721;DHT22;42950;52.134;5.578;2023-11-19T03:47:25;12.50;99.90
23721;DHT22;42950;52.134;5.578;2023-11-19T03:49:51;12.50;99.90
23721;DHT22;42950;52.134;5.578;2023-11-19T03:52:17;12.50;99.90
23721;DHT22;42950;52.134;5.578;2023-11-19T03:54:43;12.40;99.90
23721;DHT22;42950;52.134;5.578;2023-11-19T03:57:09;12.40;99.90
23721;DHT22;42950;52.134;5.578;2023-11-19T03:59:39;12.30;99.90
23721;DHT22;42950;52.134;5.578;2023-11-19T04:02:05;12.30;99.90
23721;DHT22;42950;52.134;5.578;2023-11-19T04:04:31;12.30;99.90
23721;DHT22;42950;52.134;5.578;2023-11-19T04:06:58;12.20;99.90
23721;DHT22;42950;52.134;5.578;2023-11-19T04:09:26;12.20;99.90
23721;DHT22;42950;52.134;5.578;2023-11-19T04:11:51;12.20;99.90
23721;DHT22;42950;52.134;5.578;2023-11-19T04:14:17;12.20;99.90
23721;DHT22;42950;52.134;5.578;2023-11-19T04:16:44;12.10;99.90
23721;DHT22;42950;52.134;5.578;2023-11-19T04:19:13;12.10;99.90
23721;DHT22;42950;52.134;5.578;2023-11-19T04:21:41;12.10;99.90
23721;DHT22;42950;52.134;5.578;2023-11-19T04:24:09;12.10;99.90
23721;DHT22;42950;52.134;5.578;2023-11-19T04:26:43;12.10;99.90
23721;DHT22;42950;52.134;5.578;2023-11-19T04:29:15;12.10;99.90
23721;DHT22;42950;52.134;5.578;2023-11-19T04:31:42;12.10;99.90
23721;DHT22;42950;52.134;5.578;2023-11-19T04:34:08;12.10;99.90
23721;DHT22;42950;52.134;5.578;2023-11-19T04:36:34;12.10;99.90
23721;DHT22;42950;52.134;5.578;2023-11-19T04:39:00;12.10;99.90
23721;DHT22;42950;52.134;5.578;2023-11-19T04:41:26;12.10;99.90
23721;DHT22;42950;52.134;5.578;2023-11-19T04:43:55;12.10;99.90
23721;DHT22;42950;52.134;5.578;2023-11-19T04:46:21;12.10;99.90
23721;DHT22;42950;52.134;5.578;2023-11-19T04:48:47;12.00;99.90
23721;DHT22;42950;52.134;5.578;2023-11-19T04:51:12;12.00;99.90
23721;DHT22;42950;52.134;5.578;2023-11-19T04:53:38;11.90;99.90
23721;DHT22;42950;52.134;5.578;2023-11-19T04:56:11;12.00;99.90
23721;DHT22;42950;52.134;5.578;2023-11-19T04:58:37;12.00;99.90
23721;DHT22;42950;52.134;5.578;2023-11-19T05:01:03;11.90;99.90
23721;DHT22;42950;52.134;5.578;2023-11-19T05:03:32;11.90;99.90
23721;DHT22;42950;52.134;5.578;2023-11-19T05:05:58;11.90;99.90
23721;DHT22;42950;52.134;5.578;2023-11-19T05:08:23;11.90;99.90
23721;DHT22;42950;52.134;5.578;2023-11-19T05:10:49;11.90;99.90
23721;DHT22;42950;52.134;5.578;2023-11-19T05:13:15;11.90;99.90
23721;DHT22;42950;52.134;5.578;2023-11-19T05:15:40;11.80;99.90
23721;DHT22;42950;52.134;5.578;2023-11-19T05:18:06;11.80;99.90
23721;DHT22;42950;52.134;5.578;2023-11-19T05:20:32;11.80;99.90
23721;DHT22;42950;52.134;5.578;2023-11-19T05:22:58;11.80;99.90
23721;DHT22;42950;52.134;5.578;2023-11-19T05:25:26;11.80;99.90
23721;DHT22;42950;52.134;5.578;2023-11-19T05:27:52;11.80;99.90
23721;DHT22;42950;52.134;5.578;2023-11-19T05:30:17;11.80;99.90
23721;DHT22;42950;52.134;5.578;2023-11-19T05:32:43;11.80;99.90
23721;DHT22;42950;52.134;5.578;2023-11-19T05:35:08;11.80;99.90
23721;DHT22;42950;52.134;5.578;2023-11-19T05:37:34;11.80;99.90
23721;DHT22;42950;52.134;5.578;2023-11-19T05:40:00;11.80;99.90
23721;DHT22;42950;52.134;5.578;2023-11-19T05:42:28;11.70;99.90
23721;DHT22;42950;52.134;5.578;2023-11-19T05:44:54;11.70;99.90
23721;DHT22;42950;52.134;5.578;2023-11-19T05:47:19;11.70;99.90
23721;DHT22;42950;52.134;5.578;2023-11-19T05:49:45;11.70;99.90
23721;DHT22;42950;52.134;5.578;2023-11-19T05:52:10;11.70;99.90
23721;DHT22;42950;52.134;5.578;2023-11-19T05:54:37;11.70;99.90
23721;DHT22;42950;52.134;5.578;2023-11-19T05:57:04;11.70;99.90
23721;DHT22;42950;52.134;5.578;2023-11-19T05:59:30;11.70;99.90
23721;DHT22;42950;52.134;5.578;2023-11-19T06:01:57;11.60;99.90
23721;DHT22;42950;52.134;5.578;2023-11-19T06:04:23;11.60;99.90
23721;DHT22;42950;52.134;5.578;2023-11-19T06:06:48;11.60;99.90
23721;DHT22;42950;52.134;5.578;2023-11-19T06:09:14;11.70;99.90
23721;DHT22;42950;52.134;5.578;2023-11-19T06:11:39;11.60;99.90
23721;DHT22;42950;52.134;5.578;2023-11-19T06:14:06;11.60;99.90
23721;DHT22;42950;52.134;5.578;2023-11-19T06:16:32;11.60;99.90
23721;DHT22;42950;52.134;5.578;2023-11-19T06:18:58;11.60;99.90
23721;DHT22;42950;52.134;5.578;2023-11-19T06:21:23;11.60;99.90
23721;DHT22;42950;52.134;5.578;2023-11-19T06:23:50;11.50;99.90
23721;DHT22;42950;52.134;5.578;2023-11-19T06:26:17;11.50;99.90
23721;DHT22;42950;52.134;5.578;2023-11-19T06:28:43;11.60;99.90
23721;DHT22;42950;52.134;5.578;2023-11-19T06:31:09;11.50;99.90
23721;DHT22;42950;52.134;5.578;2023-11-19T06:33:35;11.50;99.90
23721;DHT22;42950;52.134;5.578;2023-11-19T06:36:00;11.50;99.90
23721;DHT22;42950;52.134;5.578;2023-11-19T06:38:26;11.50;99.90
23721;DHT22;42950;52.134;5.578;2023-11-19T06:40:51;11.50;99.90
23721;DHT22;42950;52.134;5.578;2023-11-19T06:43:17;11.50;99.90
23721;DHT22;42950;52.134;5.578;2023-11-19T06:45:43;11.50;99.90
23721;DHT22;42950;52.134;5.578;2023-11-19T06:48:08;11.40;99.90
23721;DHT22;42950;52.134;5.578;2023-11-19T06:50:34;11.40;99.90
23721;DHT22;42950;52.134;5.578;2023-11-19T06:52:59;11.40;99.90
23721;DHT22;42950;52.134;5.578;2023-11-19T06:55:26;11.40;99.90
23721;DHT22;42950;52.134;5.578;2023-11-19T06:57:52;11.40;99.90
23721;DHT22;42950;52.134;5.578;2023-11-19T07:00:18;11.40;99.90
23721;DHT22;42950;52.134;5.578;2023-11-19T07:02:44;11.40;99.90
23721;DHT22;42950;52.134;5.578;2023-11-19T07:05:09;11.40;99.90
23721;DHT22;42950;52.134;5.578;2023-11-19T07:07:35;11.40;99.90
23721;DHT22;42950;52.134;5.578;2023-11-19T07:10:01;11.40;99.90
23721;DHT22;42950;52.134;5.578;2023-11-19T07:12:27;11.40;99.90
23721;DHT22;42950;52.134;5.578;2023-11-19T07:14:53;11.40;99.90
23721;DHT22;42950;52.134;5.578;2023-11-19T07:17:20;11.40;99.90
23721;DHT22;42950;52.134;5.578;2023-11-19T07:19:50;11.50;99.90
23721;DHT22;42950;52.134;5.578;2023-11-19T07:22:15;11.50;99.90
23721;DHT22;42950;52.134;5.578;2023-11-19T07:24:41;11.50;99.90
23721;DHT22;42950;52.134;5.578;2023-11-19T07:27:07;11.50;99.90
23721;DHT22;42950;52.134;5.578;2023-11-19T07:29:34;11.50;99.90
23721;DHT22;42950;52.134;5.578;2023-11-19T07:32:00;11.60;99.90
23721;DHT22;42950;52.134;5.578;2023-11-19T07:34:27;11.50;99.90
23721;DHT22;42950;52.134;5.578;2023-11-19T07:36:54;11.50;99.90
23721;DHT22;42950;52.134;5.578;2023-11-19T07:39:22;11.50;99.90
23721;DHT22;42950;52.134;5.578;2023-11-19T07:41:48;11.60;99.90
23721;DHT22;42950;52.134;5.578;2023-11-19T07:44:14;11.50;99.90
23721;DHT22;42950;52.134;5.578;2023-11-19T07:46:40;11.50;99.90
23721;DHT22;42950;52.134;5.578;2023-11-19T07:49:07;11.60;99.90
23721;DHT22;42950;52.134;5.578;2023-11-19T07:51:33;11.60;99.90
23721;DHT22;42950;52.134;5.578;2023-11-19T07:53:58;11.60;99.90
23721;DHT22;42950;52.134;5.578;2023-11-19T07:56:24;11.60;99.90
23721;DHT22;42950;52.134;5.578;2023-11-19T07:58:50;11.50;99.90
23721;DHT22;42950;52.134;5.578;2023-11-19T08:01:15;11.60;99.90
23721;DHT22;42950;52.134;5.578;2023-11-19T08:03:41;11.60;99.90
23721;DHT22;42950;52.134;5.578;2023-11-19T08:06:07;11.60;99.90
23721;DHT22;42950;52.134;5.578;2023-11-19T08:08:32;11.60;99.90
23721;DHT22;42950;52.134;5.578;2023-11-19T08:11:00;11.60;99.90
23721;DHT22;42950;52.134;5.578;2023-11-19T08:13:26;11.60;99.90
23721;DHT22;42950;52.134;5.578;2023-11-19T08:15:52;11.70;99.90
23721;DHT22;42950;52.134;5.578;2023-11-19T08:18:17;11.70;99.90
23721;DHT22;42950;52.134;5.578;2023-11-19T08:20:44;11.70;99.90
23721;DHT22;42950;52.134;5.578;2023-11-19T08:23:10;11.70;99.90
23721;DHT22;42950;52.134;5.578;2023-11-19T08:25:36;11.70;99.90
23721;DHT22;42950;52.134;5.578;2023-11-19T08:28:01;11.80;99.90
23721;DHT22;42950;52.134;5.578;2023-11-19T08:30:29;11.80;99.90
23721;DHT22;42950;52.134;5.578;2023-11-19T08:32:54;11.80;99.90
23721;DHT22;42950;52.134;5.578;2023-11-19T08:35:20;11.80;99.90
23721;DHT22;42950;52.134;5.578;2023-11-19T08:37:46;11.80;99.90
23721;DHT22;42950;52.134;5.578;2023-11-19T08:40:11;11.80;99.90
23721;DHT22;42950;52.134;5.578;2023-11-19T08:42:39;11.80;99.90
23721;DHT22;42950;52.134;5.578;2023-11-19T08:45:05;11.90;99.90
23721;DHT22;42950;52.134;5.578;2023-11-19T08:47:31;11.90;99.90
23721;DHT22;42950;52.134;5.578;2023-11-19T08:49:57;11.90;99.90
23721;DHT22;42950;52.134;5.578;2023-11-19T08:52:22;11.90;99.90
23721;DHT22;42950;52.134;5.578;2023-11-19T08:54:48;11.90;99.90
23721;DHT22;42950;52.134;5.578;2023-11-19T08:57:13;11.90;99.90
23721;DHT22;42950;52.134;5.578;2023-11-19T08:59:39;11.90;99.90
23721;DHT22;42950;52.134;5.578;2023-11-19T09:02:05;12.00;99.90
23721;DHT22;42950;52.134;5.578;2023-11-19T09:04:31;12.00;99.90
23721;DHT22;42950;52.134;5.578;2023-11-19T09:06:58;12.00;99.90
23721;DHT22;42950;52.134;5.578;2023-11-19T09:09:23;12.10;99.90
23721;DHT22;42950;52.134;5.578;2023-11-19T09:11:49;12.10;99.90
23721;DHT22;42950;52.134;5.578;2023-11-19T09:14:15;12.10;99.90
23721;DHT22;42950;52.134;5.578;2023-11-19T09:16:40;12.20;99.90
23721;DHT22;42950;52.134;5.578;2023-11-19T09:19:06;12.30;99.90
23721;DHT22;42950;52.134;5.578;2023-11-19T09:21:32;12.30;99.90
23721;DHT22;42950;52.134;5.578;2023-11-19T09:23:59;12.40;99.90
23721;DHT22;42950;52.134;5.578;2023-11-19T09:26:25;12.40;99.90
23721;DHT22;42950;52.134;5.578;2023-11-19T09:28:50;12.40;99.90
23721;DHT22;42950;52.134;5.578;2023-11-19T09:31:17;12.40;99.90
23721;DHT22;42950;52.134;5.578;2023-11-19T09:33:43;12.40;99.90
23721;DHT22;42950;52.134;5.578;2023-11-19T09:36:09;12.50;99.90
23721;DHT22;42950;52.134;5.578;2023-11-19T09:38:36;12.50;99.90
23721;DHT22;42950;52.134;5.578;2023-11-19T09:41:05;12.50;99.90
23721;DHT22;42950;52.134;5.578;2023-11-19T09:43:34;12.50;99.90
23721;DHT22;42950;52.134;5.578;2023-11-19T09:46:05;12.50;99.90
23721;DHT22;42950;52.134;5.578;2023-11-19T09:48:33;12.50;99.90
23721;DHT22;42950;52.134;5.578;2023-11-19T09:50:59;12.50;99.90
23721;DHT22;42950;52.134;5.578;2023-11-19T09:53:25;12.50;99.90
23721;DHT22;42950;52.134;5.578;2023-11-19T09:55:51;12.60;99.90
23721;DHT22;42950;52.134;5.578;2023-11-19T09:58:18;12.60;99.90
23721;DHT22;42950;52.134;5.578;2023-11-19T10:00:43;12.60;99.90
23721;DHT22;42950;52.134;5.578;2023-11-19T10:03:11;12.60;99.90
23721;DHT22;42950;52.134;5.578;2023-11-19T10:05:37;12.70;99.90
23721;DHT22;42950;52.134;5.578;2023-11-19T10:08:04;12.70;99.90
23721;DHT22;42950;52.134;5.578;2023-11-19T10:10:30;12.70;99.90
23721;DHT22;42950;52.134;5.578;2023-11-19T10:12:56;12.70;99.90
23721;DHT22;42950;52.134;5.578;2023-11-19T10:15:23;12.80;99.90
23721;DHT22;42950;52.134;5.578;2023-11-19T10:17:50;12.80;99.90
23721;DHT22;42950;52.134;5.578;2023-11-19T10:20:16;12.80;99.90
23721;DHT22;42950;52.134;5.578;2023-11-19T10:22:42;12.90;99.90
23721;DHT22;42950;52.134;5.578;2023-11-19T10:25:27;12.90;99.90
23721;DHT22;42950;52.134;5.578;2023-11-19T10:27:53;12.90;99.90
23721;DHT22;42950;52.134;5.578;2023-11-19T10:35:53;13.10;99.90
23721;DHT22;42950;52.134;5.578;2023-11-19T10:38:19;13.20;99.90
23721;DHT22;42950;52.134;5.578;2023-11-19T10:40:46;13.20;99.90
23721;DHT22;42950;52.134;5.578;2023-11-19T10:43:12;13.20;99.90
23721;DHT22;42950;52.134;5.578;2023-11-19T10:45:38;13.20;99.90
23721;DHT22;42950;52.134;5.578;2023-11-19T10:48:05;13.30;99.90
23721;DHT22;42950;52.134;5.578;2023-11-19T10:50:37;13.30;99.90
23721;DHT22;42950;52.134;5.578;2023-11-19T10:53:08;13.30;99.90
23721;DHT22;42950;52.134;5.578;2023-11-19T10:55:35;13.40;99.90
23721;DHT22;42950;52.134;5.578;2023-11-19T10:58:09;13.40;99.90
23721;DHT22;42950;52.134;5.578;2023-11-19T11:00:47;13.40;99.90
23721;DHT22;42950;52.134;5.578;2023-11-19T11:03:20;13.50;99.90
23721;DHT22;42950;52.134;5.578;2023-11-19T11:05:50;13.50;99.90
23721;DHT22;42950;52.134;5.578;2023-11-19T11:08:17;13.60;99.90
23721;DHT22;42950;52.134;5.578;2023-11-19T11:10:45;13.60;99.90
23721;DHT22;42950;52.134;5.578;2023-11-19T11:13:11;13.60;99.90
23721;DHT22;42950;52.134;5.578;2023-11-19T11:15:37;13.60;99.90
23721;DHT22;42950;52.134;5.578;2023-11-19T11:18:04;13.60;99.90
23721;DHT22;42950;52.134;5.578;2023-11-19T11:20:33;13.60;99.90
23721;DHT22;42950;52.134;5.578;2023-11-19T11:28:29;13.60;99.90
23721;DHT22;42950;52.134;5.578;2023-11-19T11:31:04;13.60;99.90
23721;DHT22;42950;52.134;5.578;2023-11-19T11:36:23;13.60;99.90
23721;DHT22;42950;52.134;5.578;2023-11-19T11:38:50;13.60;99.90
23721;DHT22;42950;52.134;5.578;2023-11-19T11:41:25;13.60;99.90
23721;DHT22;42950;52.134;5.578;2023-11-19T11:43:54;13.60;99.90
23721;DHT22;42950;52.134;5.578;2023-11-19T11:49:03;13.70;99.90
23721;DHT22;42950;52.134;5.578;2023-11-19T11:57:04;13.70;99.90
23721;DHT22;42950;52.134;5.578;2023-11-19T11:59:46;13.60;99.90
23721;DHT22;42950;52.134;5.578;2023-11-19T12:02:15;13.60;99.90
23721;DHT22;42950;52.134;5.578;2023-11-19T12:04:42;13.60;99.90
23721;DHT22;42950;52.134;5.578;2023-11-19T12:07:21;13.60;99.90
23721;DHT22;42950;52.134;5.578;2023-11-19T12:09:50;13.60;99.90
23721;DHT22;42950;52.134;5.578;2023-11-19T12:12:27;13.60;99.90
23721;DHT22;42950;52.134;5.578;2023-11-19T12:17:47;13.60;99.90
23721;DHT22;42950;52.134;5.578;2023-11-19T12:20:18;13.60;99.90
23721;DHT22;42950;52.134;5.578;2023-11-19T12:22:46;13.60;99.90
23721;DHT22;42950;52.134;5.578;2023-11-19T12:25:13;13.50;99.90
23721;DHT22;42950;52.134;5.578;2023-11-19T12:27:49;13.50;99.90
23721;DHT22;42950;52.134;5.578;2023-11-19T12:30:24;13.70;99.90
23721;DHT22;42950;52.134;5.578;2023-11-19T12:32:50;13.70;99.90
23721;DHT22;42950;52.134;5.578;2023-11-19T12:35:18;13.70;99.90
23721;DHT22;42950;52.134;5.578;2023-11-19T12:37:45;13.70;99.90
23721;DHT22;42950;52.134;5.578;2023-11-19T12:40:23;13.70;99.90
23721;DHT22;42950;52.134;5.578;2023-11-19T12:42:53;13.70;99.90
23721;DHT22;42950;52.134;5.578;2023-11-19T12:45:18;13.60;99.90
23721;DHT22;42950;52.134;5.578;2023-11-19T12:47:46;13.50;99.90
23721;DHT22;42950;52.134;5.578;2023-11-19T12:50:17;13.50;99.90
23721;DHT22;42950;52.134;5.578;2023-11-19T12:52:57;13.50;99.90
23721;DHT22;42950;52.134;5.578;2023-11-19T12:55:24;13.50;99.90
23721;DHT22;42950;52.134;5.578;2023-11-19T12:57:51;13.50;99.90
23721;DHT22;42950;52.134;5.578;2023-11-19T13:00:22;13.50;99.90
23721;DHT22;42950;52.134;5.578;2023-11-19T13:02:55;13.50;99.90
23721;DHT22;42950;52.134;5.578;2023-11-19T13:05:28;13.50;99.90
23721;DHT22;42950;52.134;5.578;2023-11-19T13:07:59;13.60;99.90
23721;DHT22;42950;52.134;5.578;2023-11-19T13:10:26;13.60;99.90
23721;DHT22;42950;52.134;5.578;2023-11-19T13:13:06;13.60;99.90
23721;DHT22;42950;52.134;5.578;2023-11-19T13:15:33;13.70;99.90
23721;DHT22;42950;52.134;5.578;2023-11-19T13:17:59;13.60;99.90
23721;DHT22;42950;52.134;5.578;2023-11-19T13:20:25;13.60;99.90
23721;DHT22;42950;52.134;5.578;2023-11-19T13:22:57;13.60;99.90
23721;DHT22;42950;52.134;5.578;2023-11-19T13:25:23;13.50;99.90
23721;DHT22;42950;52.134;5.578;2023-11-19T13:27:48;13.50;99.90
23721;DHT22;42950;52.134;5.578;2023-11-19T13:30:14;13.40;99.90
23721;DHT22;42950;52.134;5.578;2023-11-19T13:32:40;13.30;99.90
23721;DHT22;42950;52.134;5.578;2023-11-19T13:35:06;13.30;99.90
23721;DHT22;42950;52.134;5.578;2023-11-19T13:37:34;13.20;99.90
23721;DHT22;42950;52.134;5.578;2023-11-19T13:40:00;13.10;99.90
23721;DHT22;42950;52.134;5.578;2023-11-19T13:42:25;13.00;99.90
23721;DHT22;42950;52.134;5.578;2023-11-19T13:44:51;13.00;99.90
23721;DHT22;42950;52.134;5.578;2023-11-19T13:47:17;13.00;99.90
23721;DHT22;42950;52.134;5.578;2023-11-19T13:49:44;13.00;99.90
23721;DHT22;42950;52.134;5.578;2023-11-19T13:52:10;13.00;99.90
23721;DHT22;42950;52.134;5.578;2023-11-19T13:54:37;13.00;99.90
23721;DHT22;42950;52.134;5.578;2023-11-19T13:57:03;13.00;99.90
23721;DHT22;42950;52.134;5.578;2023-11-19T13:59:30;13.00;99.90
23721;DHT22;42950;52.134;5.578;2023-11-19T14:01:56;13.00;99.90
23721;DHT22;42950;52.134;5.578;2023-11-19T14:04:22;12.90;99.90
23721;DHT22;42950;52.134;5.578;2023-11-19T14:06:47;12.90;99.90
23721;DHT22;42950;52.134;5.578;2023-11-19T14:09:13;12.80;99.90
23721;DHT22;42950;52.134;5.578;2023-11-19T14:11:38;12.90;99.90
23721;DHT22;42950;52.134;5.578;2023-11-19T14:14:04;12.90;99.90
23721;DHT22;42950;52.134;5.578;2023-11-19T14:16:29;12.80;99.90
23721;DHT22;42950;52.134;5.578;2023-11-19T14:18:56;12.80;99.90
23721;DHT22;42950;52.134;5.578;2023-11-19T14:21:22;12.90;99.90
23721;DHT22;42950;52.134;5.578;2023-11-19T14:23:47;12.90;99.90
23721;DHT22;42950;52.134;5.578;2023-11-19T14:26:13;12.90;99.90
23721;DHT22;42950;52.134;5.578;2023-11-19T14:28:38;12.90;99.90
23721;DHT22;42950;52.134;5.578;2023-11-19T14:31:04;12.80;99.90
23721;DHT22;42950;52.134;5.578;2023-11-19T14:33:30;12.70;99.90
23721;DHT22;42950;52.134;5.578;2023-11-19T14:35:56;12.70;99.90
23721;DHT22;42950;52.134;5.578;2023-11-19T14:38:21;12.60;99.90
23721;DHT22;42950;52.134;5.578;2023-11-19T14:40:47;12.60;99.90
23721;DHT22;42950;52.134;5.578;2023-11-19T14:43:13;12.60;99.90
23721;DHT22;42950;52.134;5.578;2023-11-19T14:45:41;12.60;99.90
23721;DHT22;42950;52.134;5.578;2023-11-19T14:48:07;12.60;99.90
23721;DHT22;42950;52.134;5.578;2023-11-19T14:50:32;12.60;99.90
23721;DHT22;42950;52.134;5.578;2023-11-19T14:52:58;12.60;99.90
23721;DHT22;42950;52.134;5.578;2023-11-19T14:55:24;12.60;99.90
23721;DHT22;42950;52.134;5.578;2023-11-19T14:57:49;12.70;99.90
23721;DHT22;42950;52.134;5.578;2023-11-19T15:00:16;12.70;99.90
23721;DHT22;42950;52.134;5.578;2023-11-19T15:02:42;12.80;99.90
23721;DHT22;42950;52.134;5.578;2023-11-19T15:05:08;12.80;99.90
23721;DHT22;42950;52.134;5.578;2023-11-19T15:07:37;12.70;99.90
23721;DHT22;42950;52.134;5.578;2023-11-19T15:10:03;12.70;99.90
23721;DHT22;42950;52.134;5.578;2023-11-19T15:12:34;12.70;99.90
23721;DHT22;42950;52.134;5.578;2023-11-19T15:15:00;12.70;99.90
23721;DHT22;42950;52.134;5.578;2023-11-19T15:17:26;12.70;99.90
23721;DHT22;42950;52.134;5.578;2023-11-19T15:19:52;12.70;99.90
23721;DHT22;42950;52.134;5.578;2023-11-19T15:22:17;12.70;99.90
23721;DHT22;42950;52.134;5.578;2023-11-19T15:24:43;12.70;99.90
23721;DHT22;42950;52.134;5.578;2023-11-19T15:27:08;12.70;99.90
23721;DHT22;42950;52.134;5.578;2023-11-19T15:29:37;12.70;99.90
23721;DHT22;42950;52.134;5.578;2023-11-19T15:32:05;12.70;99.90
23721;DHT22;42950;52.134;5.578;2023-11-19T15:34:32;12.70;99.90
23721;DHT22;42950;52.134;5.578;2023-11-19T15:36:58;12.70;99.90
23721;DHT22;42950;52.134;5.578;2023-11-19T15:39:25;12.70;99.90
23721;DHT22;42950;52.134;5.578;2023-11-19T15:41:52;12.80;99.90
23721;DHT22;42950;52.134;5.578;2023-11-19T15:44:18;12.80;99.90
23721;DHT22;42950;52.134;5.578;2023-11-19T15:46:43;12.70;99.90
23721;DHT22;42950;52.134;5.578;2023-11-19T15:49:09;12.70;99.90
23721;DHT22;42950;52.134;5.578;2023-11-19T15:51:34;12.70;99.90
23721;DHT22;42950;52.134;5.578;2023-11-19T15:54:00;12.70;99.90